Time;durP1;ratioP1;P1;durP2;ratioP2;P2;SDS_P1;SDS_P2;PMS_P1;PMS_P2;Temp;Humidity;BMP_temperature;BMP_pressure;BME280_temperature;BME280_humidity;BME280_pressure;Samples;Min_cycle;Max_cycle;Signal;HPM_P1;HPM_P2
2022/06/30 00:00:03;;;;;;;13.05;10.27;;;;;;;19.06;100.00;101078.69;5031892;28;20021;-71
2022/06/30 00:02:29;;;;;;;16.15;11.35;;;;;;;18.98;100.00;101068.16;5030723;28;20017;-71
2022/06/30 00:04:54;;;;;;;16.98;11.45;;;;;;;18.99;100.00;101068.16;5031565;28;20047;-71
2022/06/30 00:07:19;;;;;;;15.27;11.57;;;;;;;18.88;100.00;101059.41;5032298;28;20578;-71
2022/06/30 00:09:45;;;;;;;13.95;12.05;;;;;;;18.86;100.00;101062.06;5031696;28;20025;-71
2022/06/30 00:12:10;;;;;;;19.23;12.27;;;;;;;18.86;100.00;101062.06;5031167;28;20017;-72
2022/06/30 00:14:35;;;;;;;17.55;11.80;;;;;;;18.90;100.00;101057.59;5031394;28;20061;-71
2022/06/30 00:17:01;;;;;;;19.45;12.23;;;;;;;18.94;100.00;101055.78;5032633;28;20035;-72
2022/06/30 00:19:26;;;;;;;19.48;11.68;;;;;;;18.96;100.00;101052.16;5032041;28;20029;-71
2022/06/30 00:21:51;;;;;;;18.58;12.40;;;;;;;18.92;100.00;101049.56;5030721;28;20033;-71
2022/06/30 00:24:17;;;;;;;17.08;12.85;;;;;;;18.86;100.00;101039.84;5031569;28;20036;-71
2022/06/30 00:26:42;;;;;;;16.73;12.93;;;;;;;18.81;100.00;101042.56;5030980;28;20397;-71
2022/06/30 00:29:08;;;;;;;15.98;12.73;;;;;;;18.75;100.00;101034.69;5032198;28;20075;-72
2022/06/30 00:31:33;;;;;;;18.35;12.98;;;;;;;18.67;100.00;101034.78;5031378;28;20068;-70
2022/06/30 00:33:58;;;;;;;16.33;13.50;;;;;;;18.59;100.00;101030.47;5030329;28;20018;-71
2022/06/30 00:36:23;;;;;;;18.35;13.07;;;;;;;18.57;100.00;101034.94;5032533;28;20088;-72
2022/06/30 00:38:49;;;;;;;19.75;13.65;;;;;;;18.56;100.00;101033.16;5031884;28;20400;-70
2022/06/30 00:41:14;;;;;;;16.15;14.43;;;;;;;18.53;100.00;101034.97;5031184;28;20025;-71
2022/06/30 00:43:44;;;;;;;18.83;14.50;;;;;;;18.59;100.00;101031.34;5030057;28;20167;-71
2022/06/30 00:46:10;;;;;;;16.67;14.20;;;;;;;18.62;100.00;101027.75;5032453;28;20040;-71
2022/06/30 00:48:35;;;;;;;17.67;14.07;;;;;;;18.62;100.00;101031.28;5029770;28;20025;-71
2022/06/30 00:51:04;;;;;;;17.17;14.20;;;;;;;18.64;100.00;101028.63;5029025;28;20093;-71
2022/06/30 00:53:31;;;;;;;19.73;13.32;;;;;;;18.76;100.00;101022.22;5029987;28;21779;-70
2022/06/30 00:55:56;;;;;;;19.40;14.27;;;;;;;18.75;100.00;101026.69;5031440;28;20025;-71
2022/06/30 00:58:22;;;;;;;17.27;14.43;;;;;;;18.70;100.00;101023.19;5031488;28;20052;-71
2022/06/30 01:00:49;;;;;;;20.00;16.15;;;;;;;18.85;100.00;101014.97;5033993;28;20036;-71
2022/06/30 01:03:16;;;;;;;19.15;15.77;;;;;;;18.89;100.00;101014.97;5034568;28;20021;-70
2022/06/30 01:05:42;;;;;;;21.05;16.70;;;;;;;18.79;100.00;101019.53;5033373;28;20037;-71
2022/06/30 01:08:07;;;;;;;19.95;16.77;;;;;;;18.84;100.00;101013.22;5035518;28;20028;-70
2022/06/30 01:13:17;;;;;;;22.60;18.05;;;;;;;18.70;100.00;101012.53;5034265;28;20130;-72
2022/06/30 01:15:43;;;;;;;21.88;18.70;;;;;;;18.83;100.00;101014.13;5034730;28;20488;-71
2022/06/30 01:18:08;;;;;;;20.98;17.60;;;;;;;18.78;100.00;101009.75;5035249;28;20108;-71
2022/06/30 01:20:34;;;;;;;22.40;18.83;;;;;;;18.77;100.00;101026.66;5035553;28;20037;-70
2022/06/30 01:23:02;;;;;;;25.08;17.48;;;;;;;18.69;100.00;101051.66;5034432;28;20052;-72
2022/06/30 01:25:27;;;;;;;25.00;18.73;;;;;;;18.69;100.00;101045.41;5032760;28;20056;-71
2022/06/30 01:27:54;;;;;;;20.17;17.40;;;;;;;18.75;100.00;101034.69;5034624;28;20107;-71
2022/06/30 01:30:20;;;;;;;21.80;17.48;;;;;;;18.80;100.00;101066.59;5035127;28;20528;-71
2022/06/30 01:32:46;;;;;;;23.15;19.25;;;;;;;18.84;100.00;101071.88;5035041;28;20120;-71
2022/06/30 01:35:11;;;;;;;23.17;16.38;;;;;;;18.89;100.00;101070.97;5035216;28;20473;-70
2022/06/30 01:38:03;;;;;;;19.17;16.15;;;;;;;18.94;100.00;101072.66;5035297;28;20408;-71
2022/06/30 01:40:31;;;;;;;22.80;16.48;;;;;;;18.97;100.00;101063.72;5032985;28;20073;-71
2022/06/30 01:42:56;;;;;;;20.65;16.27;;;;;;;19.00;100.00;101064.56;5034416;28;20022;-72
2022/06/30 01:45:22;;;;;;;16.02;14.27;;;;;;;19.05;100.00;101077.84;5035703;28;20075;-72
2022/06/30 01:47:49;;;;;;;19.73;15.02;;;;;;;19.06;100.00;101074.25;5034700;28;20037;-72
2022/06/30 01:50:18;;;;;;;25.85;14.85;;;;;;;19.06;100.00;101065.38;5035130;28;20040;-71
2022/06/30 01:52:44;;;;;;;17.70;14.70;;;;;;;19.06;100.00;101052.94;5034396;28;20407;-70
2022/06/30 01:55:09;;;;;;;17.50;13.85;;;;;;;19.00;100.00;101071.69;5034671;28;20056;-72
2022/06/30 01:57:35;;;;;;;21.70;15.43;;;;;;;18.98;100.00;101084.16;5030238;28;20035;-71
2022/06/30 02:00:05;;;;;;;21.05;13.75;;;;;;;18.93;100.00;101057.56;5035017;28;20469;-72
2022/06/30 02:02:30;;;;;;;22.60;14.77;;;;;;;18.83;100.00;101062.09;5034775;28;20026;-71
2022/06/30 02:04:56;;;;;;;18.67;14.48;;;;;;;18.83;100.00;101086.09;5033290;28;20025;-71
2022/06/30 02:07:22;;;;;;;20.27;14.70;;;;;;;18.83;100.00;101077.25;5034300;28;20017;-72
2022/06/30 02:09:50;;;;;;;16.92;12.90;;;;;;;18.80;100.00;101064.81;5026200;28;20032;-71
2022/06/30 02:15:02;;;;;;;21.75;13.85;;;;;;;18.80;100.00;101070.16;5034961;28;20167;-71
2022/06/30 02:17:27;;;;;;;21.58;12.48;;;;;;;18.70;100.00;101068.50;5034691;28;20049;-71
2022/06/30 02:19:53;;;;;;;22.80;12.75;;;;;;;18.68;100.00;101073.00;5034547;28;20102;-71
2022/06/30 02:22:18;;;;;;;16.02;13.07;;;;;;;18.63;100.00;101065.03;5034180;28;20022;-71
2022/06/30 02:24:44;;;;;;;18.58;13.43;;;;;;;18.59;100.00;101054.47;5033937;28;20036;-71
2022/06/30 02:27:09;;;;;;;18.83;12.32;;;;;;;18.61;100.00;101064.19;5033739;28;20515;-71
2022/06/30 02:29:34;;;;;;;25.08;12.57;;;;;;;18.59;100.00;101062.44;5031904;28;20021;-72
2022/06/30 02:32:00;;;;;;;19.90;12.88;;;;;;;18.53;100.00;101058.97;5032719;28;20026;-71
2022/06/30 02:34:28;;;;;;;20.60;13.13;;;;;;;18.54;100.00;101066.06;5033760;28;20448;-71
2022/06/30 02:36:53;;;;;;;14.07;12.35;;;;;;;18.55;100.00;101050.94;5033716;28;20029;-72
2022/06/30 02:39:19;;;;;;;19.95;12.73;;;;;;;18.47;100.00;101043.03;5033933;28;20555;-71
2022/06/30 02:41:44;;;;;;;19.80;12.90;;;;;;;18.43;100.00;101046.66;5031020;28;20503;-70
2022/06/30 02:44:09;;;;;;;23.00;13.75;;;;;;;18.39;100.00;101050.25;5032778;28;20036;-71
2022/06/30 02:46:34;;;;;;;19.90;13.02;;;;;;;18.30;100.00;101039.69;5033914;28;20057;-71
2022/06/30 02:49:00;;;;;;;18.20;13.07;;;;;;;18.25;100.00;101049.56;5033541;28;20120;-71
2022/06/30 02:51:25;;;;;;;24.05;13.73;;;;;;;18.26;100.00;101051.28;5033306;28;20100;-71
2022/06/30 02:53:50;;;;;;;20.02;12.90;;;;;;;18.24;100.00;101046.00;5031684;28;20136;-71
2022/06/30 02:56:16;;;;;;;21.17;13.98;;;;;;;18.24;100.00;101045.13;5031754;28;20025;-72
2022/06/30 02:58:42;;;;;;;24.23;14.25;;;;;;;18.20;100.00;101052.25;5032410;28;20049;-72
2022/06/30 03:01:08;;;;;;;20.13;14.45;;;;;;;18.20;100.00;101054.91;5033133;28;20025;-71
2022/06/30 03:03:33;;;;;;;17.05;13.15;;;;;;;18.15;100.00;101062.97;5032583;28;20028;-72
2022/06/30 03:05:58;;;;;;;21.25;14.00;;;;;;;18.08;100.00;101055.06;5031851;28;20032;-71
2022/06/30 03:08:24;;;;;;;17.75;13.98;;;;;;;18.06;100.00;101048.88;5032791;28;20425;-71
2022/06/30 03:10:49;;;;;;;18.90;12.35;;;;;;;18.04;100.00;101043.56;5032777;28;20052;-71
2022/06/30 03:13:15;;;;;;;17.92;10.50;;;;;;;18.05;100.00;101048.00;5030985;28;20025;-71
2022/06/30 03:15:40;;;;;;;15.68;11.30;;;;;;;18.05;100.00;101044.47;5032327;28;20025;-71
2022/06/30 03:18:05;;;;;;;18.38;12.00;;;;;;;18.05;100.00;101048.00;5032748;28;20075;-72
2022/06/30 03:20:31;;;;;;;18.27;10.82;;;;;;;18.03;100.00;101041.81;5032220;28;20507;-71
2022/06/30 03:22:56;;;;;;;16.40;11.10;;;;;;;17.95;100.00;101035.69;5032080;28;20032;-72
2022/06/30 03:25:22;;;;;;;16.77;11.13;;;;;;;17.96;100.00;101037.44;5031994;28;20076;-72
2022/06/30 03:27:47;;;;;;;17.02;10.25;;;;;;;17.98;100.00;101048.97;5031730;28;20037;-72
2022/06/30 03:30:13;;;;;;;15.43;9.18;;;;;;;17.94;100.00;101044.56;5032343;28;20492;-72
2022/06/30 03:32:38;;;;;;;11.07;7.65;;;;;;;17.90;100.00;101045.47;5032835;28;20065;-72
2022/06/30 03:35:04;;;;;;;13.32;8.20;;;;;;;17.87;100.00;101033.06;5032612;28;20053;-72
2022/06/30 03:37:30;;;;;;;10.38;7.72;;;;;;;17.83;100.00;101028.69;5032126;28;20086;-71
2022/06/30 03:39:57;;;;;;;13.63;8.15;;;;;;;17.81;100.00;101023.38;5032371;28;20037;-72
2022/06/30 03:42:23;;;;;;;15.82;7.60;;;;;;;17.85;100.00;101018.88;5032703;28;20104;-71
2022/06/30 03:44:48;;;;;;;12.52;7.80;;;;;;;17.79;100.00;101022.50;5030879;28;20121;-71
2022/06/30 03:47:14;;;;;;;8.35;6.68;;;;;;;17.85;100.00;101022.44;5033081;28;20017;-71
2022/06/30 03:49:39;;;;;;;12.82;7.15;;;;;;;17.80;100.00;101018.94;5032219;28;20393;-71
2022/06/30 03:52:05;;;;;;;9.43;6.25;;;;;;;17.83;100.00;101024.22;5033140;28;20033;-72
2022/06/30 03:54:30;;;;;;;10.55;6.30;;;;;;;17.84;100.00;101031.31;5030959;28;20041;-71
2022/06/30 03:56:56;;;;;;;7.95;5.57;;;;;;;17.78;100.00;101035.81;5032325;28;20127;-71
2022/06/30 03:59:22;;;;;;;8.93;5.80;;;;;;;17.77;100.00;101029.63;5031438;28;20025;-72
2022/06/30 04:01:47;;;;;;;11.55;5.60;;;;;;;17.75;100.00;101042.06;5031951;28;20026;-72
2022/06/30 04:04:12;;;;;;;9.95;5.50;;;;;;;17.73;100.00;101035.88;5031776;28;20033;-71
2022/06/30 04:06:38;;;;;;;9.40;5.43;;;;;;;17.76;100.00;101032.31;5033053;28;20048;-72
2022/06/30 04:09:03;;;;;;;9.45;4.70;;;;;;;17.77;100.00;101029.63;5031774;28;20443;-71
2022/06/30 04:11:29;;;;;;;10.18;4.78;;;;;;;17.79;100.00;101030.47;5031554;28;20513;-71
2022/06/30 04:13:54;;;;;;;9.80;4.75;;;;;;;17.76;100.00;101027.84;5031904;28;20091;-71
2022/06/30 04:16:19;;;;;;;10.27;5.18;;;;;;;17.72;100.00;101036.78;5031139;28;20068;-70
2022/06/30 04:18:45;;;;;;;11.35;4.97;;;;;;;17.68;100.00;101022.59;5031926;28;20463;-71
2022/06/30 04:21:11;;;;;;;11.20;4.53;;;;;;;17.69;100.00;101039.47;5031749;28;20033;-71
2022/06/30 04:23:37;;;;;;;9.52;4.03;;;;;;;17.53;100.00;101084.84;5032101;28;20025;-71
2022/06/30 04:26:02;;;;;;;9.65;4.22;;;;;;;17.46;100.00;101077.81;5032396;28;20037;-71
2022/06/30 04:28:28;;;;;;;7.28;3.40;;;;;;;17.45;100.00;101057.41;5030444;28;20075;-71
2022/06/30 04:33:37;;;;;;;5.65;3.55;;;;;;;17.47;100.00;101095.53;5031837;28;20404;-71
2022/06/30 04:36:04;;;;;;;8.25;3.90;;;;;;;17.51;100.00;101086.63;5036835;28;20025;-71
2022/06/30 04:38:29;;;;;;;12.13;4.90;;;;;;;17.51;100.00;101076.00;5034991;28;20029;-72
2022/06/30 04:43:38;;;;;;;9.98;5.45;;;;;;;17.47;100.00;101092.88;5031095;28;20044;-71
2022/06/30 04:46:04;;;;;;;11.02;6.47;;;;;;;17.47;100.00;101097.31;5036219;28;20033;-72
2022/06/30 04:48:29;;;;;;;13.15;7.03;;;;;;;17.43;100.00;101112.44;5032685;28;20030;-72
2022/06/30 04:50:54;;;;;;;9.60;6.65;;;;;;;17.51;100.00;101121.22;5035796;28;20022;-72
2022/06/30 04:53:20;;;;;;;12.68;7.40;;;;;;;17.45;100.00;101101.78;5033588;28;20045;-71
2022/06/30 04:55:45;;;;;;;9.90;6.05;;;;;;;17.55;100.00;101107.91;5035443;28;20045;-72
2022/06/30 04:58:10;;;;;;;14.30;6.30;;;;;;;17.52;100.00;101107.00;5035167;28;20038;-71
2022/06/30 05:00:36;;;;;;;10.02;5.70;;;;;;;17.49;100.00;101117.69;5034056;28;20040;-71
2022/06/30 05:03:01;;;;;;;8.23;5.20;;;;;;;17.44;100.00;101122.16;5033652;28;20045;-71
2022/06/30 05:05:27;;;;;;;10.15;5.03;;;;;;;17.53;100.00;101127.41;5034819;28;20124;-72
2022/06/30 05:07:52;;;;;;;11.60;4.28;;;;;;;17.53;100.00;101122.09;5034715;28;20393;-72
2022/06/30 05:10:17;;;;;;;13.27;4.43;;;;;;;17.58;100.00;101118.50;5034763;28;20036;-72
2022/06/30 05:12:43;;;;;;;11.20;4.55;;;;;;;17.66;100.00;101114.91;5035195;28;20543;-71
2022/06/30 05:15:08;;;;;;;8.95;4.00;;;;;;;17.68;100.00;101122.88;5034764;28;20053;-71
2022/06/30 05:17:34;;;;;;;16.95;4.80;;;;;;;17.72;100.00;101121.06;5034177;28;20496;-71
2022/06/30 05:20:00;;;;;;;16.13;4.00;;;;;;;17.65;100.00;101122.91;5035042;28;20034;-71
2022/06/30 05:22:25;;;;;;;11.02;4.03;;;;;;;17.71;100.00;101120.16;5034527;28;20032;-71
2022/06/30 05:27:35;;;;;;;10.13;3.40;;;;;;;17.81;100.00;101127.19;5034938;28;20090;-71
2022/06/30 05:30:00;;;;;;;9.27;3.33;;;;;;;17.87;100.00;101137.75;5030197;28;20028;-71
2022/06/30 05:32:26;;;;;;;8.13;3.35;;;;;;;17.96;100.00;101135.94;5032208;28;20025;-71
2022/06/30 05:34:51;;;;;;;10.13;2.92;;;;;;;17.94;100.00;101122.66;5035062;28;20033;-71
2022/06/30 05:37:17;;;;;;;7.93;2.42;;;;;;;17.95;100.00;101116.44;5034496;28;20025;-71
2022/06/30 05:39:42;;;;;;;5.40;1.88;;;;;;;17.86;100.00;101114.72;5032406;28;20036;-71
2022/06/30 05:42:07;;;;;;;7.30;2.58;;;;;;;17.79;100.00;101115.66;5031231;28;20464;-67
2022/06/30 05:44:33;;;;;;;6.80;2.30;;;;;;;17.81;100.00;101108.56;5034026;28;20063;-71
2022/06/30 05:46:58;;;;;;;9.48;2.20;;;;;;;17.89;100.00;101111.13;5033167;28;20033;-71
2022/06/30 05:49:24;;;;;;;4.93;2.13;;;;;;;17.91;100.00;101101.34;5031645;28;20025;-71
2022/06/30 05:51:50;;;;;;;11.93;2.22;;;;;;;17.95;100.00;101111.13;5032778;28;20071;-71
2022/06/30 05:54:15;;;;;;;8.90;2.10;;;;;;;17.93;100.00;101106.69;5031218;28;20445;-72
2022/06/30 05:56:41;;;;;;;7.75;1.77;;;;;;;17.92;100.00;101105.81;5023418;28;20108;-72
2022/06/30 05:59:06;;;;;;;5.63;1.63;;;;;;;17.90;100.00;101109.38;5026240;28;20090;-71
2022/06/30 06:01:32;;;;;;;6.30;1.60;;;;;;;17.97;100.00;101109.34;5027166;28;20033;-71
2022/06/30 06:03:57;;;;;;;6.97;1.92;;;;;;;17.99;100.00;101112.84;5026127;28;20080;-71
2022/06/30 06:06:23;;;;;;;6.93;1.90;;;;;;;17.99;100.00;101104.00;5031976;28;20033;-73
2022/06/30 06:08:48;;;;;;;5.45;1.63;;;;;;;17.96;100.00;101109.31;5030966;28;20110;-70
2022/06/30 06:11:13;;;;;;;7.93;1.90;;;;;;;17.96;100.00;101110.22;5031791;28;20032;-71
2022/06/30 06:13:39;;;;;;;5.78;1.42;;;;;;;18.01;100.00;101107.50;5029628;28;20033;-71
2022/06/30 06:16:04;;;;;;;6.80;1.75;;;;;;;18.11;100.00;101103.84;5032815;28;20175;-72
2022/06/30 06:18:30;;;;;;;12.35;2.30;;;;;;;18.11;100.00;101114.50;5034237;28;20021;-71
2022/06/30 06:20:55;;;;;;;7.15;1.80;;;;;;;18.17;100.00;101106.44;5032542;28;20030;-71
2022/06/30 06:23:20;;;;;;;6.00;1.60;;;;;;;18.24;100.00;101111.72;5033569;28;20093;-71
2022/06/30 06:25:46;;;;;;;6.80;1.73;;;;;;;18.27;100.00;101106.34;5031138;28;20037;-70
2022/06/30 06:30:55;;;;;;;4.88;1.50;;;;;;;18.29;100.00;101112.56;5025215;28;20049;-71
2022/06/30 06:33:21;;;;;;;5.55;1.90;;;;;;;18.32;100.00;101117.84;5023926;28;20033;-72
2022/06/30 06:35:46;;;;;;;4.88;1.75;;;;;;;18.37;100.00;101105.34;5033094;28;20033;-72
2022/06/30 06:38:11;;;;;;;8.68;1.90;;;;;;;18.40;100.00;101113.31;5030376;28;20025;-73
2022/06/30 06:40:37;;;;;;;4.03;1.58;;;;;;;18.38;100.00;101120.44;5028980;28;20029;-72
2022/06/30 06:43:02;;;;;;;6.57;1.40;;;;;;;18.39;100.00;101122.19;5027598;28;20069;-73
2022/06/30 06:45:27;;;;;;;8.25;2.25;;;;;;;18.52;100.00;101121.16;5030896;28;20029;-71
2022/06/30 06:47:52;;;;;;;6.82;1.63;;;;;;;18.64;100.00;101124.59;5032646;28;20711;-71
2022/06/30 06:50:18;;;;;;;8.90;1.65;;;;;;;18.68;100.00;101134.31;5031436;28;20035;-71
2022/06/30 06:52:43;;;;;;;6.72;1.92;;;;;;;18.72;100.00;101133.38;5028689;28;20034;-71
2022/06/30 06:55:09;;;;;;;7.70;1.88;;;;;;;18.78;100.00;101133.28;5033165;28;20145;-71
2022/06/30 06:57:37;;;;;;;6.88;1.95;;;;;;;18.91;100.00;101135.81;5028544;28;20120;-71
2022/06/30 07:00:09;;;;;;;4.75;1.70;;;;;;;19.02;100.00;101139.22;5029530;28;20112;-70
2022/06/30 07:02:35;;;;;;;6.53;1.48;;;;;;;19.07;100.00;101134.69;5027517;28;20026;-70
2022/06/30 07:05:00;;;;;;;3.83;1.25;;;;;;;19.17;100.00;101138.13;5032938;28;20036;-70
2022/06/30 07:07:26;;;;;;;5.28;1.35;;;;;;;19.27;100.00;101146.88;5033141;28;20121;-69
2022/06/30 07:09:52;;;;;;;4.60;1.92;;;;;;;19.23;100.00;101145.16;5033479;28;20056;-71
2022/06/30 07:12:17;;;;;;;6.05;1.40;;;;;;;19.23;100.00;101155.81;5029719;28;20500;-70
2022/06/30 07:14:43;;;;;;;4.43;1.20;;;;;;;19.25;100.00;101154.00;5023261;28;20034;-70
2022/06/30 07:17:08;;;;;;;8.13;1.67;;;;;;;19.27;100.00;101152.22;5031098;28;20454;-70
2022/06/30 07:19:34;;;;;;;9.30;1.63;;;;;;;19.34;100.00;101156.53;5033006;28;20033;-70
2022/06/30 07:21:59;;;;;;;6.28;1.40;;;;;;;19.34;100.00;101159.22;5033066;28;20034;-70
2022/06/30 07:24:25;;;;;;;5.90;1.40;;;;;;;19.36;100.00;101168.09;5033396;28;20119;-70
2022/06/30 07:26:50;;;;;;;4.20;1.30;;;;;;;19.46;100.00;101164.34;5033268;28;20484;-70
2022/06/30 07:29:16;;;;;;;9.05;1.50;;;;;;;19.45;100.00;101162.63;5033422;28;20075;-70
2022/06/30 07:31:42;;;;;;;6.07;1.30;;;;;;;19.57;100.00;101155.31;5032448;28;20036;-70
2022/06/30 07:34:07;;;;;;;4.18;1.20;;;;;;;19.63;100.00;101165.88;5032307;28;20021;-71
2022/06/30 07:36:33;;;;;;;3.55;1.38;;;;;;;19.70;100.00;101156.88;5033183;28;20388;-72
2022/06/30 07:38:58;;;;;;;4.75;1.40;;;;;;;19.77;100.00;101158.53;5031882;28;20392;-71
2022/06/30 07:41:24;;;;;;;5.45;1.70;;;;;;;19.90;100.00;101159.25;5033214;28;20029;-71
2022/06/30 07:43:50;;;;;;;5.18;1.63;;;;;;;20.02;100.00;101169.72;5032616;28;20454;-71
2022/06/30 07:46:16;;;;;;;3.22;0.93;;;;;;;20.04;100.00;101178.59;5026553;28;20078;-71
2022/06/30 07:48:42;;;;;;;3.97;1.17;;;;;;;20.14;100.00;101176.63;5030708;28;20033;-72
2022/06/30 07:51:08;;;;;;;7.03;2.00;;;;;;;20.26;100.00;101175.53;5032082;28;20026;-71
2022/06/30 07:53:33;;;;;;;6.20;1.40;;;;;;;20.29;100.00;101185.28;5031582;28;20064;-70
2022/06/30 07:55:59;;;;;;;5.82;1.60;;;;;;;20.16;100.00;101198.88;5026222;28;20036;-71
2022/06/30 07:58:24;;;;;;;6.93;1.52;;;;;;;20.12;100.00;101194.50;5031378;28;20508;-71
2022/06/30 08:00:50;;;;;;;4.78;1.38;;;;;;;20.29;100.00;101198.66;5031489;28;20029;-71
2022/06/30 08:03:15;;;;;;;6.65;1.35;;;;;;;20.30;100.00;101192.41;5031083;28;20030;-72
2022/06/30 08:05:40;;;;;;;8.15;1.63;;;;;;;20.27;100.00;101200.47;5032110;28;20038;-71
2022/06/30 08:08:06;;;;;;;5.85;1.20;;;;;;;20.29;100.00;101201.31;5025502;28;20109;-71
2022/06/30 08:10:31;;;;;;;7.43;1.80;;;;;;;20.31;100.00;101200.38;5034961;28;20473;-71
2022/06/30 08:12:57;;;;;;;6.65;1.73;;;;;;;20.23;100.00;101201.44;5033804;28;20036;-71
2022/06/30 08:15:22;;;;;;;5.18;1.85;;;;;;;20.28;100.00;101196.88;5024706;28;20033;-70
2022/06/30 08:17:48;;;;;;;4.82;1.23;;;;;;;20.27;100.00;101208.50;5024720;28;20033;-71
2022/06/30 08:20:13;;;;;;;5.00;1.20;;;;;;;20.34;100.00;101199.44;5027529;28;20079;-71
2022/06/30 08:22:38;;;;;;;4.90;1.25;;;;;;;20.48;100.00;101209.88;5033921;28;20068;-71
2022/06/30 08:25:05;;;;;;;8.13;2.13;;;;;;;20.52;100.00;101212.47;5033494;28;20029;-71
2022/06/30 08:27:30;;;;;;;7.25;1.48;;;;;;;20.54;100.00;101215.13;5025217;28;20061;-71
2022/06/30 08:29:55;;;;;;;5.95;1.75;;;;;;;20.58;100.00;101211.47;5035113;28;20049;-71
2022/06/30 08:32:22;;;;;;;5.03;2.08;;;;;;;20.58;100.00;101207.91;5034699;28;20028;-71
2022/06/30 08:34:48;;;;;;;4.32;1.27;;;;;;;20.69;100.00;101200.59;5034449;28;20030;-71
2022/06/30 08:37:13;;;;;;;5.63;1.40;;;;;;;20.73;100.00;101204.97;5034912;28;20148;-72
2022/06/30 08:42:23;;;;;;;4.75;1.10;;;;;;;20.98;100.00;101199.97;5036288;28;20040;-71
2022/06/30 08:45:30;;;;;;;2.25;1.10;;;;;;;21.10;100.00;101192.63;5035534;28;20034;-72
2022/06/30 08:47:38;;;;;;;6.70;1.30;;;;;;;21.02;100.00;101196.31;5031447;28;20358;-69
2022/06/30 08:50:05;;;;;;;3.83;1.38;;;;;;;21.01;100.00;101204.38;5033399;28;20108;-72
2022/06/30 08:52:31;;;;;;;7.00;1.27;;;;;;;21.06;100.00;101202.50;5036138;28;20037;-72
2022/06/30 08:54:58;;;;;;;8.00;1.65;;;;;;;21.11;100.00;101205.97;5031149;28;20065;-72
2022/06/30 08:57:25;;;;;;;8.20;1.40;;;;;;;21.12;100.00;101207.75;5035785;28;20473;-70
2022/06/30 08:59:52;;;;;;;6.40;1.17;;;;;;;21.08;100.00;101200.69;5026437;28;20040;-71
2022/06/30 09:02:18;;;;;;;4.43;1.20;;;;;;;21.09;100.00;101198.88;5036423;28;20458;-70
2022/06/30 09:04:43;;;;;;;4.95;1.30;;;;;;;21.02;100.00;101204.34;5033405;28;20078;-70
2022/06/30 09:07:10;;;;;;;7.63;1.40;;;;;;;21.16;100.00;101205.84;5035324;28;20025;-70
2022/06/30 09:09:36;;;;;;;5.78;1.73;;;;;;;21.28;100.00;101213.63;5036197;28;20025;-70
2022/06/30 09:12:02;;;;;;;4.95;1.67;;;;;;;21.15;100.00;101221.03;5032437;28;20026;-71
2022/06/30 09:14:47;;;;;;;3.63;1.25;;;;;;;21.20;100.00;101215.56;5035777;28;20052;-71
2022/06/30 09:17:18;;;;;;;4.95;1.40;;;;;;;21.27;100.00;101210.97;5035158;28;20075;-71
2022/06/30 09:20:22;;;;;;;7.13;1.40;;;;;;;21.32;100.00;101212.63;5027979;28;20041;-71
2022/06/30 09:22:47;;;;;;;5.55;1.13;;;;;;;21.52;100.00;101211.31;5022774;28;20477;-70
2022/06/30 09:25:22;;;;;;;5.82;1.33;;;;;;;21.62;100.00;101212.00;5034653;28;20032;-70
2022/06/30 09:27:47;;;;;;;2.78;1.40;;;;;;;21.74;100.00;101217.06;5022689;28;20032;-71
2022/06/30 09:30:15;;;;;;;3.95;1.45;;;;;;;21.68;100.00;101222.59;5036097;28;20112;-71
2022/06/30 09:32:53;;;;;;;4.50;1.48;;;;;;;21.62;100.00;101212.88;5035757;28;20033;-70
2022/06/30 09:35:21;;;;;;;3.08;1.58;;;;;;;21.55;100.00;101220.19;5034609;28;20029;-70
2022/06/30 09:37:57;;;;;;;5.75;1.65;;;;;;;21.57;100.00;101222.84;5035164;28;20091;-70
2022/06/30 09:40:32;;;;;;;4.93;1.85;;;;;;;21.44;100.00;101224.88;5034246;28;20056;-71
2022/06/30 09:42:57;;;;;;;4.60;1.30;;;;;;;21.53;100.00;101224.69;5034647;28;20382;-71
2022/06/30 09:45:34;;;;;;;5.57;1.83;;;;;;;21.62;100.00;101220.03;5034984;28;20025;-71
2022/06/30 09:48:00;;;;;;;4.43;1.65;;;;;;;21.78;100.00;101224.09;5035314;28;20029;-71
2022/06/30 09:50:25;;;;;;;6.65;2.17;;;;;;;22.02;100.00;101228.00;5034320;28;20382;-71
2022/06/30 09:53:10;;;;;;;5.50;1.50;;;;;;;22.18;100.00;101225.81;5034135;28;20500;-71
2022/06/30 09:55:47;;;;;;;3.25;1.40;;;;;;;22.34;100.00;101223.66;5028940;28;20037;-71
2022/06/30 09:58:16;;;;;;;4.80;1.83;;;;;;;22.43;100.00;101227.88;5030264;28;20037;-70
2022/06/30 10:00:50;;;;;;;3.55;1.88;;;;;;;22.40;100.00;101238.69;5033989;28;20426;-70
2022/06/30 10:03:16;;;;;;;6.25;1.45;;;;;;;22.27;100.00;101248.81;5033710;28;20704;-70
2022/06/30 10:05:44;;;;;;;3.55;1.30;;;;;;;22.19;100.00;101251.69;5032502;28;20057;-71
2022/06/30 10:08:11;;;;;;;8.43;1.58;;;;;;;22.24;100.00;101244.41;5033479;28;20036;-70
2022/06/30 10:10:37;;;;;;;5.38;1.45;;;;;;;22.43;100.00;101235.91;5034280;28;20151;-70
2022/06/30 10:13:03;;;;;;;4.20;1.58;;;;;;;22.62;100.00;101241.66;5028864;28;20105;-70
2022/06/30 10:15:34;;;;;;;4.93;1.60;;;;;;;22.73;100.00;101239.56;5033175;28;20029;-70
2022/06/30 10:18:01;;;;;;;6.15;1.77;;;;;;;22.88;100.00;101242.72;5032399;28;20473;-70
2022/06/30 10:20:28;;;;;;;6.57;1.52;;;;;;;23.13;100.00;101248.31;5021371;28;20393;-70
2022/06/30 10:22:54;;;;;;;5.32;1.92;;;;;;;23.31;99.52;101249.56;5033015;28;20397;-70
2022/06/30 10:25:20;;;;;;;4.10;1.52;;;;;;;22.83;97.68;101250.94;5034398;28;20418;-69
2022/06/30 10:27:46;;;;;;;4.95;1.73;;;;;;;22.65;100.00;101243.38;5027963;28;20115;-70
2022/06/30 10:30:23;;;;;;;5.80;1.98;;;;;;;22.65;100.00;101243.38;5034337;28;20041;-69
2022/06/30 10:33:00;;;;;;;3.63;1.50;;;;;;;22.64;100.00;101241.59;5032649;28;20028;-69
2022/06/30 10:35:36;;;;;;;9.95;1.80;;;;;;;22.73;100.00;101249.41;5030078;28;20143;-71
2022/06/30 10:38:24;;;;;;;6.90;1.88;;;;;;;23.00;100.00;101254.94;5030533;28;20136;-72
2022/06/30 10:41:13;;;;;;;5.25;1.80;;;;;;;22.93;98.69;101254.22;5030149;28;20052;-71
2022/06/30 10:44:03;;;;;;;6.25;1.63;;;;;;;22.85;100.00;101257.13;5033155;28;20370;-71
2022/06/30 10:46:29;;;;;;;6.32;1.70;;;;;;;22.80;100.00;101250.13;5032663;28;20120;-73
2022/06/30 10:48:55;;;;;;;7.72;2.17;;;;;;;22.86;100.00;101256.19;5033538;28;20083;-72
2022/06/30 10:51:22;;;;;;;8.93;2.00;;;;;;;22.84;100.00;101254.47;5033969;28;20021;-72
2022/06/30 10:53:50;;;;;;;5.10;1.80;;;;;;;22.91;100.00;101256.06;5032574;28;20136;-72
2022/06/30 10:56:15;;;;;;;4.20;1.73;;;;;;;22.80;100.00;101248.31;5034052;28;20036;-71
2022/06/30 10:59:03;;;;;;;3.60;1.67;;;;;;;22.36;100.00;101256.66;5033808;28;20021;-71
2022/06/30 11:01:29;;;;;;;5.95;2.05;;;;;;;22.22;100.00;101256.97;5028265;28;20026;-72
2022/06/30 11:03:54;;;;;;;6.20;1.88;;;;;;;22.12;100.00;101263.47;5033644;28;20388;-72
2022/06/30 11:06:19;;;;;;;6.07;2.03;;;;;;;22.04;100.00;101262.78;5033782;28;20033;-72
2022/06/30 11:08:52;;;;;;;6.50;2.30;;;;;;;21.77;100.00;101270.59;5033799;28;20024;-72
2022/06/30 11:11:20;;;;;;;8.25;1.70;;;;;;;21.70;100.00;101266.28;5034004;28;20087;-72
2022/06/30 11:14:01;;;;;;;7.28;1.48;;;;;;;21.64;100.00;101261.94;5033131;28;20040;-72
2022/06/30 11:16:27;;;;;;;3.60;2.17;;;;;;;21.49;100.00;101270.31;5033348;28;20116;-72
2022/06/30 11:18:55;;;;;;;4.93;1.55;;;;;;;21.39;100.00;101273.16;5033664;28;20029;-72
2022/06/30 11:21:21;;;;;;;6.00;1.88;;;;;;;21.35;100.00;101262.53;5032521;28;20550;-72
2022/06/30 11:23:49;;;;;;;3.25;1.55;;;;;;;21.21;100.00;101255.69;5032230;28;20025;-73
2022/06/30 11:29:02;;;;;;;4.55;1.88;;;;;;;20.98;100.00;101258.84;5032083;28;20116;-71
2022/06/30 11:31:34;;;;;;;3.85;1.60;;;;;;;21.02;100.00;101249.84;5032296;28;20075;-72